createdAt,value
2023-05-20T00:02:11.152Z,2.47
2023-05-20T00:04:38.414Z,4.07
2023-05-20T00:07:05.698Z,3.03
2023-05-20T00:09:32.732Z,2.87
2023-05-20T00:11:59.566Z,2.87
2023-05-20T00:14:26.533Z,2.77
2023-05-20T00:16:53.492Z,3.00
2023-05-20T00:19:20.844Z,3.13
2023-05-20T00:21:47.792Z,3.23
2023-05-20T00:24:14.963Z,2.80
2023-05-20T00:26:41.995Z,2.90
2023-05-20T00:29:09.005Z,2.90
2023-05-20T00:31:35.978Z,2.80
2023-05-20T00:34:02.793Z,2.97
2023-05-20T00:36:29.778Z,3.10
2023-05-20T00:38:56.562Z,3.27
2023-05-20T00:41:23.569Z,3.67
2023-05-20T00:43:54.763Z,3.00
2023-05-20T00:46:22.815Z,2.80
2023-05-20T00:48:50.174Z,2.90
2023-05-20T00:51:17.619Z,2.83
2023-05-20T00:53:44.987Z,2.67
2023-05-20T00:56:12.383Z,3.10
2023-05-20T00:58:40.281Z,2.40
2023-05-20T01:01:07.717Z,2.60
2023-05-20T01:03:35.003Z,2.60
2023-05-20T01:06:02.734Z,2.77
2023-05-20T01:08:29.692Z,2.73
2023-05-20T01:11:06.918Z,2.80
2023-05-20T01:13:39.374Z,2.70
2023-05-20T01:16:08.233Z,2.80
2023-05-20T01:18:36.286Z,2.60
2023-05-20T01:21:06.242Z,2.50
2023-05-20T01:23:34.850Z,2.57
2023-05-20T01:26:01.696Z,3.07
2023-05-20T01:28:30.446Z,2.30
2023-05-20T01:31:02.356Z,2.60
2023-05-20T01:33:30.321Z,2.40
2023-05-20T01:35:57.762Z,2.43
2023-05-20T01:38:25.157Z,2.67
2023-05-20T01:40:52.437Z,2.90
2023-05-20T01:43:19.346Z,2.73
2023-05-20T01:45:46.745Z,3.00
2023-05-20T01:48:13.827Z,2.60
2023-05-20T01:50:41.478Z,2.70
2023-05-20T01:53:09.647Z,2.57
2023-05-20T01:55:36.770Z,2.50
2023-05-20T01:58:04.697Z,2.37
2023-05-20T02:00:34.116Z,2.27
2023-05-20T02:03:01.290Z,3.03
2023-05-20T02:05:28.139Z,2.40
2023-05-20T02:07:55.187Z,2.17
2023-05-20T02:10:23.483Z,2.40
2023-05-20T02:12:52.474Z,2.50
2023-05-20T02:15:19.567Z,2.37
2023-05-20T02:17:47.150Z,2.30
2023-05-20T02:20:14.965Z,2.60
2023-05-20T02:22:44.625Z,2.13
2023-05-20T02:25:14.128Z,2.60
2023-05-20T02:27:45.590Z,2.50
2023-05-20T02:30:12.895Z,2.40
2023-05-20T02:32:39.986Z,2.23
2023-05-20T02:35:09.492Z,2.60
2023-05-20T02:37:39.136Z,3.20
2023-05-20T02:40:07.048Z,2.20
2023-05-20T02:42:33.782Z,2.17
2023-05-20T02:45:01.135Z,2.57
2023-05-20T02:47:27.908Z,2.00
2023-05-20T02:49:54.813Z,2.23
2023-05-20T02:52:24.862Z,2.00
2023-05-20T02:54:52.872Z,2.50
2023-05-20T02:57:20.694Z,2.20
2023-05-20T02:59:48.118Z,2.60
2023-05-20T03:02:14.939Z,2.40
2023-05-20T03:04:41.874Z,2.60
2023-05-20T03:07:09.091Z,2.57
2023-05-20T03:09:36.277Z,2.20
2023-05-20T03:12:03.233Z,2.50
2023-05-20T03:14:30.477Z,2.17
2023-05-20T03:16:57.424Z,2.73
2023-05-20T03:19:24.439Z,2.30
2023-05-20T03:21:51.596Z,2.70
2023-05-20T03:24:18.522Z,2.23
2023-05-20T03:26:47.351Z,2.40
2023-05-20T03:29:14.411Z,2.80
2023-05-20T03:31:41.787Z,2.63
2023-05-20T03:34:08.853Z,2.60
2023-05-20T03:36:36.211Z,2.30
2023-05-20T03:39:04.609Z,2.60
2023-05-20T03:41:32.879Z,2.57
2023-05-20T03:43:59.629Z,2.40
2023-05-20T03:46:27.144Z,2.40
2023-05-20T03:48:54.212Z,2.70
2023-05-20T03:51:22.116Z,2.33
2023-05-20T03:53:50.749Z,2.63
2023-05-20T03:56:18.310Z,2.90
2023-05-20T03:58:45.410Z,2.50
2023-05-20T04:01:15.506Z,2.53
2023-05-20T04:03:42.727Z,2.60
2023-05-20T04:06:10.071Z,2.93
2023-05-20T04:08:37.467Z,2.67
2023-05-20T04:11:04.416Z,2.67
2023-05-20T04:13:31.339Z,2.53
2023-05-20T04:15:58.661Z,2.90
2023-05-20T04:18:30.264Z,2.80
2023-05-20T04:20:57.378Z,2.60
2023-05-20T04:23:27.000Z,2.60
2023-05-20T04:25:55.270Z,2.67
2023-05-20T04:28:24.114Z,3.00
2023-05-20T04:31:04.516Z,2.70
2023-05-20T04:33:38.078Z,3.50
2023-05-20T04:36:08.271Z,2.93
2023-05-20T04:38:36.156Z,2.70
2023-05-20T04:41:03.174Z,2.53
2023-05-20T04:43:30.388Z,3.00
2023-05-20T04:45:58.796Z,2.83
2023-05-20T04:48:27.518Z,2.73
2023-05-20T04:50:54.604Z,3.10
2023-05-20T04:53:24.233Z,2.90
2023-05-20T04:55:54.797Z,2.83
2023-05-20T04:58:24.333Z,3.40
2023-05-20T05:00:52.080Z,3.17
2023-05-20T05:03:19.160Z,2.90
2023-05-20T05:05:46.000Z,2.90
2023-05-20T05:08:12.999Z,2.90
2023-05-20T05:10:45.415Z,2.93
2023-05-20T05:13:12.443Z,3.00
2023-05-20T05:15:39.314Z,3.30
2023-05-20T05:18:06.401Z,3.20
2023-05-20T05:20:34.775Z,3.10
2023-05-20T05:23:01.771Z,2.67
2023-05-20T05:25:30.074Z,3.20
2023-05-20T05:27:59.554Z,3.00
2023-05-20T05:30:27.240Z,3.00
2023-05-20T05:32:54.463Z,3.67
2023-05-20T05:35:22.726Z,3.93
2023-05-20T05:37:49.869Z,3.40
2023-05-20T05:40:17.144Z,3.17
2023-05-20T05:42:44.155Z,2.87
2023-05-20T05:45:11.635Z,3.30
2023-05-20T05:47:38.805Z,2.17
2023-05-20T05:50:06.391Z,2.60
2023-05-20T05:52:34.557Z,2.73
2023-05-20T05:55:04.024Z,2.60
2023-05-20T05:57:32.812Z,2.63
2023-05-20T06:00:01.453Z,3.00
2023-05-20T06:02:36.594Z,2.80
2023-05-20T06:05:05.380Z,2.70
2023-05-20T06:07:32.569Z,2.47
2023-05-20T06:09:59.645Z,2.30
2023-05-20T06:12:26.646Z,2.50
2023-05-20T06:14:53.605Z,2.20
2023-05-20T06:17:20.914Z,2.83
2023-05-20T06:19:47.881Z,2.70
2023-05-20T06:22:16.217Z,2.67
2023-05-20T06:24:43.345Z,2.50
2023-05-20T06:27:10.439Z,2.67
2023-05-20T06:29:37.257Z,2.43
2023-05-20T06:32:04.905Z,2.70
2023-05-20T06:34:31.911Z,2.40
2023-05-20T06:36:59.268Z,3.00
2023-05-20T06:39:26.092Z,2.80
2023-05-20T06:41:53.080Z,2.83
2023-05-20T06:44:28.049Z,2.70
2023-05-20T06:47:14.968Z,2.47
2023-05-20T06:49:46.487Z,2.57
2023-05-20T06:52:14.502Z,2.83
2023-05-20T06:54:41.875Z,3.03
2023-05-20T06:57:10.807Z,2.80
2023-05-20T06:59:38.034Z,3.00
2023-05-20T07:02:06.685Z,2.47
2023-05-20T07:04:33.715Z,2.73
2023-05-20T07:07:00.637Z,2.37
2023-05-20T07:09:27.651Z,2.53
2023-05-20T07:11:54.662Z,2.60
2023-05-20T07:14:21.504Z,2.80
2023-05-20T07:16:48.480Z,2.80
2023-05-20T07:19:15.330Z,2.50
2023-05-20T07:21:42.380Z,2.33
2023-05-20T07:24:27.446Z,2.50
2023-05-20T07:26:54.331Z,2.80
2023-05-20T07:29:21.218Z,2.60
2023-05-20T07:31:52.421Z,2.40
2023-05-20T07:34:19.420Z,2.40
2023-05-20T07:36:46.320Z,2.47
2023-05-20T07:39:15.293Z,2.80
2023-05-20T07:41:42.990Z,3.00
2023-05-20T07:44:11.361Z,2.13
2023-05-20T07:46:41.934Z,2.60
2023-05-20T07:49:10.898Z,2.40
2023-05-20T07:51:39.259Z,2.33
2023-05-20T07:54:06.733Z,2.07
2023-05-20T07:56:35.057Z,2.50
2023-05-20T07:59:12.407Z,2.07
2023-05-20T08:01:45.109Z,2.03
2023-05-20T08:04:15.028Z,2.60
2023-05-20T08:06:43.286Z,2.50
2023-05-20T08:09:15.400Z,2.20
2023-05-20T08:11:48.447Z,2.00
2023-05-20T08:14:15.304Z,2.53
2023-05-20T08:16:44.619Z,2.50
2023-05-20T08:19:11.672Z,2.50
2023-05-20T08:21:39.317Z,2.50
2023-05-20T08:24:06.683Z,2.30
2023-05-20T08:26:33.667Z,2.10
2023-05-20T08:29:00.564Z,2.40
2023-05-20T08:31:29.271Z,2.27
2023-05-20T08:33:56.338Z,2.70
2023-05-20T08:36:23.687Z,2.50
2023-05-20T08:38:50.707Z,2.67
2023-05-20T08:41:17.508Z,2.27
2023-05-20T08:43:47.350Z,2.23
2023-05-20T08:46:18.089Z,2.20
2023-05-20T08:48:45.348Z,1.80
2023-05-20T08:51:12.525Z,2.13
2023-05-20T08:53:40.129Z,2.27
2023-05-20T08:56:08.622Z,2.40
2023-05-20T08:58:35.827Z,1.80
2023-05-20T09:01:03.162Z,2.30
2023-05-20T09:03:30.662Z,2.13
2023-05-20T09:06:08.334Z,2.03
2023-05-20T09:08:35.553Z,2.43
2023-05-20T09:11:02.667Z,2.10
2023-05-20T09:13:32.545Z,2.00
2023-05-20T09:16:03.173Z,1.90
2023-05-20T09:18:30.616Z,2.30
2023-05-20T09:20:57.513Z,2.37
2023-05-20T09:23:26.168Z,2.30
2023-05-20T09:25:53.198Z,2.10
2023-05-20T09:28:49.363Z,2.13
2023-05-20T09:31:16.794Z,2.63
2023-05-20T09:33:44.348Z,2.20
2023-05-20T09:36:11.944Z,2.20
2023-05-20T09:39:05.400Z,2.20
2023-05-20T09:41:39.269Z,2.23
2023-05-20T09:44:09.656Z,2.10
2023-05-20T09:46:36.762Z,2.40
2023-05-20T09:49:03.723Z,1.90
2023-05-20T09:51:32.162Z,1.93
2023-05-20T09:53:59.024Z,2.07
2023-05-20T09:56:27.513Z,2.30
2023-05-20T09:58:58.405Z,2.20
2023-05-20T10:01:25.694Z,2.03
2023-05-20T10:03:53.409Z,2.27
2023-05-20T10:06:29.715Z,2.37
2023-05-20T10:09:14.880Z,2.37
2023-05-20T10:12:13.838Z,1.97
2023-05-20T10:15:14.215Z,2.27
2023-05-20T10:17:58.465Z,2.47
2023-05-20T10:20:25.430Z,2.07
2023-05-20T10:22:59.007Z,2.33
2023-05-20T10:25:28.020Z,2.10
2023-05-20T10:28:11.587Z,2.23
2023-05-20T10:30:45.211Z,2.00
2023-05-20T10:33:17.963Z,2.07
2023-05-20T10:35:50.821Z,1.90
2023-05-20T10:38:18.727Z,2.07
2023-05-20T10:40:46.402Z,2.17
2023-05-20T10:43:25.894Z,2.10
2023-05-20T10:45:54.485Z,2.43
2023-05-20T10:48:30.926Z,2.10
2023-05-20T10:50:59.932Z,2.80
2023-05-20T10:53:34.509Z,2.77
2023-05-20T10:56:01.833Z,2.00
2023-05-20T10:58:28.608Z,2.53
2023-05-20T11:00:56.275Z,2.27
2023-05-20T11:03:23.738Z,2.00
2023-05-20T11:05:51.375Z,2.60
2023-05-20T11:08:28.505Z,2.60
2023-05-20T11:10:59.400Z,2.00
2023-05-20T11:13:27.193Z,2.43
2023-05-20T11:15:54.263Z,3.10
2023-05-20T11:18:21.438Z,2.20
2023-05-20T11:20:48.295Z,2.30
2023-05-20T11:23:15.685Z,1.93
2023-05-20T11:25:42.847Z,2.50
2023-05-20T11:28:14.413Z,1.90
2023-05-20T11:30:43.198Z,1.90
2023-05-20T11:33:12.785Z,2.47
2023-05-20T11:35:45.960Z,2.03
2023-05-20T11:38:13.236Z,2.70
2023-05-20T11:40:50.435Z,2.40
2023-05-20T11:43:19.485Z,2.27
2023-05-20T11:45:48.367Z,2.30
2023-05-20T11:48:18.133Z,2.70
2023-05-20T11:50:46.499Z,2.33
2023-05-20T11:53:20.701Z,2.17
2023-05-20T11:55:55.764Z,2.33
2023-05-20T11:58:24.288Z,2.27
2023-05-20T12:00:56.809Z,2.20
2023-05-20T12:03:26.719Z,2.10
2023-05-20T12:05:53.878Z,2.10
2023-05-20T12:08:20.736Z,2.40
2023-05-20T12:10:47.807Z,2.37
2023-05-20T12:13:14.726Z,2.63
2023-05-20T12:15:41.668Z,2.30
2023-05-20T12:18:08.554Z,3.20
2023-05-20T12:20:37.266Z,2.20
2023-05-20T12:23:04.968Z,2.53
2023-05-20T12:25:34.756Z,1.93
2023-05-20T12:28:02.662Z,2.10
2023-05-20T12:30:29.477Z,2.17
2023-05-20T12:32:57.008Z,2.10
2023-05-20T12:35:40.057Z,2.00
2023-05-20T12:38:07.558Z,2.03
2023-05-20T12:40:35.619Z,2.10
2023-05-20T12:43:04.207Z,2.10
2023-05-20T12:45:31.126Z,2.27
2023-05-20T12:47:58.172Z,2.47
2023-05-20T12:50:25.906Z,1.67
2023-05-20T12:52:53.270Z,2.03
2023-05-20T12:55:20.026Z,1.93
2023-05-20T12:57:47.374Z,2.00
2023-05-20T13:00:15.170Z,1.70
2023-05-20T13:02:42.751Z,1.90
2023-05-20T13:05:10.257Z,1.87
2023-05-20T13:07:37.273Z,1.87
2023-05-20T13:10:04.411Z,1.90
2023-05-20T13:12:31.332Z,1.60
2023-05-20T13:14:58.298Z,1.97
2023-05-20T13:17:27.929Z,2.27
2023-05-20T13:19:55.454Z,2.23
2023-05-20T13:22:22.830Z,1.70
2023-05-20T13:24:49.847Z,2.20
2023-05-20T13:27:16.741Z,1.80
2023-05-20T13:29:43.803Z,2.10
2023-05-20T13:32:11.628Z,2.00
2023-05-20T13:34:39.356Z,2.27
2023-05-20T13:37:07.041Z,2.07
2023-05-20T13:39:34.364Z,2.20
2023-05-20T13:42:01.648Z,2.47
2023-05-20T13:44:29.719Z,2.33
2023-05-20T13:46:58.031Z,2.13
2023-05-20T13:49:25.872Z,2.17
2023-05-20T13:51:52.597Z,1.77
2023-05-20T13:54:21.482Z,2.10
2023-05-20T13:56:48.783Z,2.43
2023-05-20T13:59:16.065Z,1.77
2023-05-20T14:01:46.597Z,2.07
2023-05-20T14:04:13.661Z,1.90
2023-05-20T14:06:40.579Z,2.00
2023-05-20T14:09:11.035Z,2.00
2023-05-20T14:11:37.999Z,2.20
2023-05-20T14:14:04.859Z,2.20
2023-05-20T14:16:32.325Z,2.10
2023-05-20T14:18:59.465Z,2.13
2023-05-20T14:21:26.271Z,2.50
2023-05-20T14:23:53.247Z,2.50
2023-05-20T14:26:20.245Z,2.17
2023-05-20T14:28:47.201Z,2.30
2023-05-20T14:31:14.257Z,2.73
2023-05-20T14:33:41.096Z,2.00
2023-05-20T14:36:08.229Z,2.07
2023-05-20T14:38:35.079Z,2.30
2023-05-20T14:41:01.983Z,1.70
2023-05-20T14:43:28.811Z,2.27
2023-05-20T14:45:55.842Z,2.03
2023-05-20T14:48:22.717Z,2.13
2023-05-20T14:50:49.934Z,2.40
2023-05-20T14:53:19.432Z,1.90
2023-05-20T14:55:46.303Z,2.23
2023-05-20T14:58:13.421Z,2.53
2023-05-20T15:00:40.698Z,2.43
2023-05-20T15:03:07.827Z,2.30
2023-05-20T15:05:34.786Z,2.47
2023-05-20T15:08:01.579Z,2.10
2023-05-20T15:10:28.378Z,2.27
2023-05-20T15:12:55.343Z,1.90
2023-05-20T15:15:22.241Z,2.57
2023-05-20T15:17:49.353Z,2.20
2023-05-20T15:20:16.363Z,2.13
2023-05-20T15:22:47.758Z,2.43
2023-05-20T15:25:14.968Z,2.60
2023-05-20T15:27:42.331Z,2.60
2023-05-20T15:30:10.152Z,2.50
2023-05-20T15:32:37.178Z,2.53
2023-05-20T15:35:04.588Z,2.70
2023-05-20T15:37:31.727Z,2.47
2023-05-20T15:39:58.782Z,3.23
2023-05-20T15:42:25.617Z,2.63
2023-05-20T15:44:52.582Z,2.53
2023-05-20T15:47:19.551Z,2.63
2023-05-20T15:49:46.380Z,2.67
2023-05-20T15:52:14.230Z,2.53
2023-05-20T15:54:41.315Z,2.53
2023-05-20T15:57:08.145Z,3.10
2023-05-20T15:59:35.778Z,2.70
2023-05-20T16:02:02.647Z,2.97
2023-05-20T16:04:29.706Z,3.27
2023-05-20T16:06:56.735Z,2.80
2023-05-20T16:09:23.710Z,2.73
2023-05-20T16:11:50.693Z,2.90
2023-05-20T16:14:17.538Z,3.00
2023-05-20T16:16:44.483Z,2.57
2023-05-20T16:19:11.469Z,2.80
2023-05-20T16:21:38.290Z,2.70
2023-05-20T16:24:05.610Z,3.03
2023-05-20T16:26:32.379Z,3.27
2023-05-20T16:28:59.335Z,2.87
2023-05-20T16:31:27.671Z,2.93
2023-05-20T16:33:55.122Z,3.30
2023-05-20T16:36:22.108Z,3.70
2023-05-20T16:38:49.016Z,3.30
2023-05-20T16:41:16.400Z,3.50
2023-05-20T16:43:43.249Z,3.40
2023-05-20T16:46:14.076Z,3.40
2023-05-20T16:48:41.417Z,3.33
2023-05-20T16:51:08.204Z,3.30
2023-05-20T16:53:35.076Z,3.23
2023-05-20T16:56:01.900Z,3.10
2023-05-20T16:58:28.624Z,2.83
2023-05-20T17:00:55.588Z,2.57
2023-05-20T17:03:22.486Z,2.90
2023-05-20T17:05:49.241Z,2.60
2023-05-20T17:08:16.852Z,2.77
2023-05-20T17:10:43.760Z,2.30
2023-05-20T17:13:10.643Z,2.73
2023-05-20T17:15:37.467Z,2.80
2023-05-20T17:18:04.965Z,2.47
2023-05-20T17:20:32.584Z,2.30
2023-05-20T17:22:59.713Z,2.43
2023-05-20T17:25:26.515Z,2.67
2023-05-20T17:27:53.417Z,2.90
2023-05-20T17:30:22.416Z,2.60
2023-05-20T17:32:52.331Z,2.60
2023-05-20T17:35:20.961Z,2.00
2023-05-20T17:37:47.809Z,2.30
2023-05-20T17:40:14.957Z,2.60
2023-05-20T17:42:41.805Z,2.57
2023-05-20T17:45:09.636Z,2.23
2023-05-20T17:47:36.667Z,2.70
2023-05-20T17:50:03.869Z,2.70
2023-05-20T17:52:30.948Z,2.33
2023-05-20T17:54:57.837Z,2.00
2023-05-20T17:57:24.591Z,2.33
2023-05-20T17:59:54.718Z,2.13
2023-05-20T18:02:21.671Z,2.10
2023-05-20T18:04:48.689Z,2.07
2023-05-20T18:07:17.664Z,2.10
2023-05-20T18:09:44.539Z,1.97
2023-05-20T18:12:11.508Z,1.60
2023-05-20T18:14:38.306Z,2.10
2023-05-20T18:17:05.176Z,1.93
2023-05-20T18:19:33.838Z,1.47
2023-05-20T18:22:02.825Z,1.73
2023-05-20T18:24:29.808Z,1.87
2023-05-20T18:26:57.302Z,2.13
2023-05-20T18:29:24.456Z,1.80
2023-05-20T18:31:51.445Z,1.80
2023-05-20T18:34:18.245Z,1.87
2023-05-20T18:36:45.211Z,2.10
2023-05-20T18:39:14.203Z,1.97
2023-05-20T18:44:12.568Z,2.20
2023-05-20T18:46:39.908Z,1.80
2023-05-20T18:49:06.831Z,2.00
2023-05-20T18:51:33.910Z,2.13
2023-05-20T18:54:01.814Z,1.73
2023-05-20T18:56:28.758Z,2.20
2023-05-20T18:58:55.522Z,1.97
2023-05-20T19:01:22.395Z,2.20
2023-05-20T19:03:49.617Z,2.13
2023-05-20T19:06:16.440Z,2.17
2023-05-20T19:08:43.972Z,1.80
2023-05-20T19:11:11.115Z,2.10
2023-05-20T19:13:37.916Z,2.20
2023-05-20T19:16:05.007Z,2.00
2023-05-20T19:18:32.486Z,1.87
2023-05-20T19:20:59.758Z,1.90
2023-05-20T19:23:26.517Z,1.80
2023-05-20T19:25:53.916Z,2.07
2023-05-20T19:28:20.819Z,2.27
2023-05-20T19:30:47.754Z,2.10
2023-05-20T19:33:14.670Z,1.80
2023-05-20T19:35:41.650Z,1.60
2023-05-20T19:38:08.543Z,1.87
2023-05-20T19:40:35.962Z,2.13
2023-05-20T19:43:02.769Z,1.97
2023-05-20T19:45:29.810Z,2.17
2023-05-20T19:47:57.063Z,1.90
2023-05-20T19:50:24.461Z,2.00
2023-05-20T19:52:51.242Z,2.10
2023-05-20T19:55:18.315Z,1.90
2023-05-20T19:57:47.739Z,2.20
2023-05-20T20:00:15.495Z,2.07
2023-05-20T20:02:42.310Z,1.90
2023-05-20T20:05:10.071Z,1.83
2023-05-20T20:07:37.270Z,2.10
2023-05-20T20:10:04.326Z,2.10
2023-05-20T20:12:31.043Z,1.97
2023-05-20T20:14:58.182Z,1.80
2023-05-20T20:17:27.463Z,2.03
2023-05-20T20:19:55.324Z,2.30
2023-05-20T20:22:22.077Z,2.10
2023-05-20T20:24:50.161Z,2.20
2023-05-20T20:27:19.141Z,2.40
2023-05-20T20:29:46.119Z,2.00
2023-05-20T20:32:12.927Z,2.33
2023-05-20T20:34:39.810Z,2.17
2023-05-20T20:37:06.949Z,2.10
2023-05-20T20:39:34.771Z,2.27
2023-05-20T20:42:03.005Z,2.07
2023-05-20T20:44:29.914Z,2.47
2023-05-20T20:46:58.384Z,2.80
2023-05-20T20:49:27.666Z,2.60
2023-05-20T20:51:55.599Z,2.27
2023-05-20T20:54:22.333Z,2.13
2023-05-20T20:56:50.138Z,2.10
2023-05-20T20:59:16.928Z,2.27
2023-05-20T21:01:44.934Z,2.30
2023-05-20T21:04:14.491Z,2.57
2023-05-20T21:06:47.266Z,2.20
2023-05-20T21:09:14.741Z,2.53
2023-05-20T21:11:45.953Z,2.40
2023-05-20T21:14:13.183Z,2.90
2023-05-20T21:16:40.324Z,2.40
2023-05-20T21:19:08.058Z,2.30
2023-05-20T21:21:34.982Z,2.30
2023-05-20T21:24:01.893Z,2.57
2023-05-20T21:26:28.582Z,2.40
2023-05-20T21:28:55.465Z,2.10
2023-05-20T21:31:22.354Z,2.33
2023-05-20T21:33:49.328Z,2.47
2023-05-20T21:36:16.288Z,2.20
2023-05-20T21:38:43.136Z,2.33
2023-05-20T21:41:10.164Z,2.30
2023-05-20T21:43:37.485Z,2.13
2023-05-20T21:46:04.673Z,2.20
2023-05-20T21:48:31.495Z,2.27
2023-05-20T21:50:58.352Z,2.20
2023-05-20T21:53:25.105Z,2.07
2023-05-20T21:55:53.703Z,1.97
2023-05-20T21:58:20.548Z,1.83
2023-05-20T22:00:50.309Z,1.73
2023-05-20T22:03:20.268Z,2.20
2023-05-20T22:05:47.200Z,2.00
2023-05-20T22:08:17.042Z,2.10
2023-05-20T22:10:44.383Z,1.90
2023-05-20T22:13:15.895Z,2.00
2023-05-20T22:15:43.074Z,2.00
2023-05-20T22:18:12.476Z,2.03
2023-05-20T22:20:39.891Z,2.57
2023-05-20T22:23:06.689Z,2.03
2023-05-20T22:25:33.651Z,2.20
2023-05-20T22:28:01.398Z,1.87
2023-05-20T22:30:28.324Z,2.20
2023-05-20T22:32:56.282Z,2.17
2023-05-20T22:35:23.800Z,1.80
2023-05-20T22:37:51.097Z,1.90
2023-05-20T22:40:18.024Z,2.37
2023-05-20T22:42:44.908Z,2.13
2023-05-20T22:45:11.730Z,2.20
2023-05-20T22:47:39.058Z,2.00
2023-05-20T22:50:07.255Z,2.33
2023-05-20T22:52:39.461Z,1.87
2023-05-20T22:55:07.076Z,1.90
2023-05-20T22:57:33.926Z,2.00
2023-05-20T23:00:01.003Z,2.00
2023-05-20T23:02:30.496Z,2.00
2023-05-20T23:04:57.835Z,2.27
2023-05-20T23:07:24.818Z,2.20
2023-05-20T23:09:51.634Z,2.13
2023-05-20T23:12:18.390Z,2.33
2023-05-20T23:14:45.226Z,2.47
2023-05-20T23:17:17.162Z,2.17
2023-05-20T23:19:44.635Z,2.33
2023-05-20T23:22:11.918Z,2.47
2023-05-20T23:24:41.496Z,1.90
2023-05-20T23:27:11.246Z,2.17
2023-05-20T23:29:42.274Z,2.10
2023-05-20T23:32:13.861Z,2.33
2023-05-20T23:34:41.109Z,2.40
2023-05-20T23:37:08.029Z,2.50
2023-05-20T23:39:34.887Z,2.40
2023-05-20T23:42:04.115Z,2.00
2023-05-20T23:44:31.072Z,2.33
2023-05-20T23:46:57.910Z,2.20
2023-05-20T23:49:27.192Z,2.20
2023-05-20T23:51:54.085Z,2.47
2023-05-20T23:54:23.924Z,2.23
2023-05-20T23:56:55.354Z,2.30
2023-05-20T23:59:22.923Z,2.37
